首页
METAR-TAF:

METAR-TAF

机场 :

Pearson Field

溫哥華, 华盛顿, 美国

纬度: 45-37-24N, 经度: 122-39-23W, 海拔: 7米

当前天气观测

该预报发布于43分钟前的02:02 UTC
风速4节,风向
温度 4°C
湿度 87%
气压 1014 hPa
能見度: 16.1公里
散云层高于2200英尺
多云层高于4500英尺

METAR: KVUO 170202Z AUTO 09004KT 10SM SCT022 BKN045 04/02 A2993 RMK AO2 T00440022

时间: 18:45 (02:45 UTC)


TAF: 丢失

超过4000个机场的气象观测和天气预报(METAR&TAF报告)。

可查询的气象台以黄色和红色小点在地图上表示。

将鼠标移到小点上方,可查看气象台名称。

然后点击查看天气观测和预报。

如需切换地图:点击带黑十字的绿色按钮放大地图;点击带横线的绿色按钮缩小地图;或者点击绿色箭头查看邻近地区的地图。


METAR-TAF: